Time;durP1;ratioP1;P1;durP2;ratioP2;P2;SDS_P1;SDS_P2;PMS_P1;PMS_P2;Temp;Humidity;BMP_temperature;BMP_pressure;BME280_temperature;BME280_humidity;BME280_pressure;Samples;Min_cycle;Max_cycle;Signal;HPM_P1;HPM_P2
2022/04/21 00:00:25;;;;;;;15.45;8.30;;;;;;;27.02;15.83;97714.28;5071587;28;20032;-76
2022/04/21 00:02:51;;;;;;;12.43;8.18;;;;;;;26.00;16.33;97718.84;5070993;28;21432;-75
2022/04/21 00:05:18;;;;;;;15.02;8.00;;;;;;;25.38;17.11;97732.59;5072352;28;20068;-76
2022/04/21 00:07:45;;;;;;;12.63;7.63;;;;;;;25.61;16.95;97720.22;5076664;28;20025;-75
2022/04/21 00:10:11;;;;;;;14.60;8.63;;;;;;;26.20;16.49;97715.78;5075976;28;20166;-76
2022/04/21 00:12:37;;;;;;;13.02;7.22;;;;;;;26.46;16.01;97717.22;5074943;28;20032;-76
2022/04/21 00:15:05;;;;;;;14.93;7.60;;;;;;;26.48;16.03;97721.16;5073350;28;20384;-76
2022/04/21 00:17:31;;;;;;;13.70;7.53;;;;;;;26.81;15.77;97723.56;5071165;28;20024;-76
2022/04/21 00:19:57;;;;;;;13.50;7.82;;;;;;;27.01;15.32;97721.94;5071980;28;20043;-76
2022/04/21 00:25:09;;;;;;;12.98;7.35;;;;;;;26.94;15.46;97727.84;5077294;28;20047;-76
2022/04/21 00:27:42;;;;;;;12.05;6.93;;;;;;;26.85;15.47;97732.66;5072066;28;20036;-75
2022/04/21 00:30:09;;;;;;;12.95;7.88;;;;;;;26.71;15.67;97733.97;5066301;28;20086;-75
2022/04/21 00:32:40;;;;;;;16.05;8.75;;;;;;;26.70;15.99;97730.34;5070758;28;20746;-75
2022/04/21 00:35:08;;;;;;;14.20;7.95;;;;;;;26.95;15.53;97728.66;5076317;28;20540;-75
2022/04/21 00:37:44;;;;;;;13.10;8.20;;;;;;;27.11;15.19;97731.22;5069976;28;20481;-75
2022/04/21 00:40:11;;;;;;;14.57;8.23;;;;;;;26.85;15.69;97733.44;5071240;28;20032;-76
2022/04/21 00:42:37;;;;;;;15.23;8.70;;;;;;;26.16;16.39;97732.00;5075346;28;20037;-75
2022/04/21 00:45:04;;;;;;;16.33;9.20;;;;;;;25.69;16.55;97735.63;5068494;28;20504;-75
2022/04/21 00:47:31;;;;;;;13.85;7.43;;;;;;;25.73;16.67;97739.09;5071792;28;20040;-75
2022/04/21 00:49:58;;;;;;;16.50;8.65;;;;;;;26.25;16.34;97740.53;5071965;28;20054;-75
2022/04/21 00:52:25;;;;;;;13.57;7.75;;;;;;;26.50;15.83;97741.19;5070162;28;20116;-75
2022/04/21 00:54:52;;;;;;;13.90;7.47;;;;;;;26.54;15.76;97735.41;5074002;28;20028;-75
2022/04/21 00:57:18;;;;;;;14.07;7.93;;;;;;;26.65;15.80;97730.94;5071912;28;20028;-75
2022/04/21 00:59:46;;;;;;;17.13;8.98;;;;;;;26.95;15.54;97734.28;5066406;28;20083;-75
2022/04/21 01:04:59;;;;;;;11.77;8.15;;;;;;;26.96;15.40;97730.22;5069722;28;20097;-76
2022/04/21 01:07:26;;;;;;;15.80;8.63;;;;;;;26.96;15.50;97736.63;5072693;28;20055;-75
2022/04/21 01:09:55;;;;;;;13.35;7.45;;;;;;;27.04;15.41;97734.31;5073430;28;20028;-75
2022/04/21 01:12:23;;;;;;;14.18;8.32;;;;;;;27.20;15.48;97737.69;5074431;28;20025;-75
2022/04/21 01:14:49;;;;;;;14.02;7.60;;;;;;;27.03;15.58;97736.34;5070687;28;20036;-76
2022/04/21 01:17:15;;;;;;;12.10;7.35;;;;;;;26.94;15.76;97735.53;5069587;28;20590;-76
2022/04/21 01:19:41;;;;;;;12.82;7.35;;;;;;;27.05;15.59;97738.72;5072124;28;20437;-76
2022/04/21 01:22:10;;;;;;;12.35;7.50;;;;;;;26.98;15.50;97742.59;5074002;28;20040;-75
2022/04/21 01:24:36;;;;;;;12.02;6.80;;;;;;;27.15;15.23;97741.13;5073836;28;21252;-76
2022/04/21 01:27:02;;;;;;;10.73;6.07;;;;;;;27.04;15.38;97743.56;5070930;28;20024;-76
2022/04/21 01:29:28;;;;;;;11.90;8.05;;;;;;;26.66;16.02;97746.63;5068670;28;20097;-76
2022/04/21 01:31:55;;;;;;;13.75;7.38;;;;;;;26.71;15.89;97746.03;5069106;28;20040;-76
2022/04/21 01:34:21;;;;;;;12.43;7.30;;;;;;;26.97;15.50;97752.31;5069465;28;20493;-76
2022/04/21 01:42:18;;;;;;;14.90;7.95;;;;;;;26.84;15.58;97737.50;5070868;28;20186;-76
2022/04/21 01:44:44;;;;;;;15.00;7.97;;;;;;;26.48;16.12;97743.69;5072092;28;20044;-76
2022/04/21 01:47:11;;;;;;;12.85;7.35;;;;;;;26.51;16.18;97742.75;5073326;28;20036;-76
2022/04/21 01:49:37;;;;;;;15.77;8.98;;;;;;;26.59;15.69;97737.63;5068091;28;20036;-76
2022/04/21 01:52:04;;;;;;;12.05;7.45;;;;;;;26.89;15.88;97736.91;5070669;28;20563;-75
2022/04/21 01:54:30;;;;;;;15.25;8.88;;;;;;;27.05;15.50;97730.28;5066604;28;20046;-76
2022/04/21 01:56:56;;;;;;;11.95;7.65;;;;;;;27.14;15.23;97738.78;5073146;28;20028;-75
2022/04/21 01:59:22;;;;;;;12.18;7.68;;;;;;;27.15;15.34;97727.03;5068856;28;20045;-75
2022/04/21 02:01:48;;;;;;;15.90;8.88;;;;;;;27.23;15.26;97724.72;5068057;28;20044;-76
2022/04/21 02:04:14;;;;;;;15.15;8.45;;;;;;;27.25;15.25;97716.56;5067833;28;20505;-76
2022/04/21 02:06:40;;;;;;;18.67;9.93;;;;;;;27.19;15.24;97718.44;5069626;28;20052;-76
2022/04/21 02:09:06;;;;;;;17.48;9.73;;;;;;;27.24;15.47;97720.63;5066531;28;20755;-76
2022/04/21 02:11:32;;;;;;;15.23;8.93;;;;;;;27.24;15.34;97721.41;5069112;28;20048;-75
2022/04/21 02:13:58;;;;;;;15.55;9.48;;;;;;;27.18;15.47;97722.50;5058946;28;20036;-76
2022/04/21 02:16:24;;;;;;;13.77;7.82;;;;;;;27.15;15.29;97717.78;5046334;28;20051;-76
2022/04/21 02:18:50;;;;;;;14.88;9.13;;;;;;;26.93;15.59;97723.50;5055990;28;20032;-76
2022/04/21 02:21:16;;;;;;;14.00;7.22;;;;;;;26.34;16.04;97718.06;5068429;28;20044;-76
2022/04/21 02:23:42;;;;;;;13.80;7.95;;;;;;;26.37;16.13;97714.34;5069075;28;20086;-76
2022/04/21 02:26:11;;;;;;;11.52;7.82;;;;;;;26.64;15.90;97731.41;5068196;28;20036;-75
2022/04/21 02:28:38;;;;;;;12.05;6.78;;;;;;;26.86;15.66;97723.75;5069928;28;20045;-76
2022/04/21 02:31:04;;;;;;;13.30;7.85;;;;;;;26.93;15.59;97719.88;5068984;28;20040;-75
2022/04/21 02:33:31;;;;;;;14.18;7.45;;;;;;;26.77;15.58;97723.69;5068049;28;20032;-75
2022/04/21 02:35:57;;;;;;;12.00;6.78;;;;;;;26.38;15.96;97721.53;5076866;28;20105;-76
2022/04/21 02:38:23;;;;;;;14.73;7.13;;;;;;;26.41;16.12;97723.44;5072573;28;20028;-76
2022/04/21 02:40:49;;;;;;;11.13;6.63;;;;;;;26.34;16.23;97726.53;5074654;28;20028;-76
2022/04/21 02:43:15;;;;;;;10.15;6.72;;;;;;;26.49;15.88;97721.94;5070245;28;20068;-75
2022/04/21 02:45:42;;;;;;;10.27;6.63;;;;;;;26.49;15.77;97736.78;5069329;28;20821;-76
2022/04/21 02:48:09;;;;;;;10.73;7.28;;;;;;;26.43;16.05;97727.38;5072049;28;20032;-76
2022/04/21 02:50:36;;;;;;;10.85;7.05;;;;;;;26.52;16.16;97733.06;5070180;28;20032;-76
2022/04/21 02:53:03;;;;;;;11.50;7.70;;;;;;;26.03;16.57;97730.00;5072144;28;20055;-75
2022/04/21 02:58:14;;;;;;;13.25;7.63;;;;;;;26.54;16.29;97712.88;5073069;28;20098;-76
2022/04/21 03:00:41;;;;;;;12.55;7.28;;;;;;;26.72;15.94;97702.50;5071246;28;21329;-75
2022/04/21 03:03:07;;;;;;;15.85;8.88;;;;;;;26.81;15.96;97695.41;5070853;28;20041;-76
2022/04/21 03:05:33;;;;;;;13.75;8.02;;;;;;;26.80;15.64;97719.16;5068206;28;20036;-76
2022/04/21 03:07:59;;;;;;;12.50;7.75;;;;;;;26.71;15.88;97717.84;5075650;28;20565;-75
2022/04/21 03:10:25;;;;;;;15.50;7.63;;;;;;;26.74;15.59;97719.75;5075955;28;20063;-76
2022/04/21 03:12:51;;;;;;;12.18;7.55;;;;;;;26.71;15.71;97712.22;5071354;28;20028;-76
2022/04/21 03:15:17;;;;;;;14.40;7.85;;;;;;;26.48;16.03;97709.09;5067712;28;20040;-76
2022/04/21 03:17:43;;;;;;;11.93;7.80;;;;;;;26.56;15.78;97710.38;5071626;28;20028;-75
2022/04/21 03:24:18;;;;;;;12.48;7.18;;;;;;;26.73;15.45;97706.91;5072576;28;20028;-76
2022/04/21 03:25:40;;;;;;;12.55;7.32;;;;;;;27.04;15.68;97694.88;5074506;28;20039;-75
2022/04/21 03:28:06;;;;;;;14.23;7.95;;;;;;;27.05;15.53;97699.28;5076114;28;20045;-76
2022/04/21 03:30:32;;;;;;;14.48;8.07;;;;;;;27.07;15.51;97703.19;5068279;28;20033;-76
2022/04/21 03:32:58;;;;;;;14.20;7.63;;;;;;;27.07;15.28;97700.34;5070568;28;20144;-76
2022/04/21 03:35:25;;;;;;;13.10;7.10;;;;;;;26.77;15.71;97698.34;5070208;28;20849;-76
2022/04/21 03:37:51;;;;;;;10.90;7.00;;;;;;;26.49;16.00;97696.59;5074757;28;20048;-75
2022/04/21 03:40:17;;;;;;;13.30;6.60;;;;;;;26.65;15.90;97697.16;5075961;28;20091;-76
2022/04/21 03:42:43;;;;;;;11.95;6.68;;;;;;;26.81;15.68;97692.59;5071980;28;20469;-75
2022/04/21 03:45:09;;;;;;;13.52;6.97;;;;;;;26.26;16.09;97697.84;5072058;28;20489;-75
2022/04/21 03:47:35;;;;;;;11.82;6.22;;;;;;;26.11;16.35;97704.44;5074108;28;20028;-75
2022/04/21 03:50:01;;;;;;;9.98;6.25;;;;;;;25.90;16.57;97708.78;5072716;28;20033;-75
2022/04/21 03:52:27;;;;;;;11.35;6.45;;;;;;;26.00;16.69;97711.22;5068917;28;20032;-76
2022/04/21 03:54:53;;;;;;;14.57;7.47;;;;;;;26.45;15.97;97708.00;5075434;28;20055;-76
2022/04/21 03:57:20;;;;;;;9.90;6.82;;;;;;;26.81;15.54;97715.91;5076286;28;20482;-76
2022/04/21 03:59:46;;;;;;;14.27;6.82;;;;;;;26.89;15.66;97722.81;5071878;28;20534;-76
2022/04/21 04:02:12;;;;;;;11.90;6.32;;;;;;;26.12;16.63;97717.25;5075472;28;20089;-76
2022/04/21 04:04:38;;;;;;;9.52;5.82;;;;;;;26.23;16.25;97718.47;5068590;28;20044;-76
2022/04/21 04:12:36;;;;;;;10.10;6.35;;;;;;;26.83;16.03;97713.41;5072185;28;20163;-77
2022/04/21 04:15:04;;;;;;;13.35;7.65;;;;;;;26.55;16.33;97714.47;5075700;28;20039;-77
2022/04/21 04:17:30;;;;;;;11.27;6.60;;;;;;;26.30;16.57;97715.38;5067379;28;20159;-78
2022/04/21 04:19:56;;;;;;;13.68;7.32;;;;;;;25.95;16.84;97713.84;5073519;28;20119;-79
2022/04/21 04:22:22;;;;;;;12.40;6.82;;;;;;;25.53;17.27;97726.53;5074522;28;20551;-79
2022/04/21 04:24:54;;;;;;;11.07;7.07;;;;;;;25.84;17.05;97716.22;5075594;28;20054;-78
2022/04/21 04:27:24;;;;;;;14.35;8.60;;;;;;;26.40;16.39;97721.84;5070221;28;20040;-78
2022/04/21 04:29:50;;;;;;;14.60;6.90;;;;;;;26.48;16.24;97726.78;5066458;28;20592;-80
2022/04/21 04:32:16;;;;;;;11.15;6.90;;;;;;;26.76;16.01;97721.34;5071273;28;20123;-79
2022/04/21 04:34:43;;;;;;;10.65;7.50;;;;;;;26.44;16.61;97723.28;5072382;28;20035;-80
2022/04/21 04:37:09;;;;;;;13.05;7.78;;;;;;;26.73;16.24;97721.00;5066796;28;20082;-79
2022/04/21 04:39:36;;;;;;;11.75;7.43;;;;;;;26.89;16.35;97720.00;5072335;28;20163;-79
2022/04/21 04:42:18;;;;;;;10.02;7.00;;;;;;;27.01;16.11;97719.13;5065088;28;20068;-78
2022/04/21 04:44:49;;;;;;;12.88;7.45;;;;;;;27.15;15.72;97721.38;5067522;28;21991;-78
2022/04/21 04:47:15;;;;;;;12.80;8.07;;;;;;;26.58;16.71;97719.94;5069934;28;20115;-78
2022/04/21 04:49:42;;;;;;;14.23;7.47;;;;;;;26.14;16.91;97726.81;5074077;28;20041;-78
2022/04/21 04:52:08;;;;;;;12.65;7.38;;;;;;;25.99;17.17;97725.75;5071092;28;20033;-78
2022/04/21 04:54:34;;;;;;;10.45;6.68;;;;;;;26.23;16.78;97723.31;5066721;28;20045;-79
2022/04/21 04:57:00;;;;;;;12.57;7.55;;;;;;;26.60;16.90;97723.13;5065335;28;20040;-79
2022/04/21 04:59:29;;;;;;;13.15;7.93;;;;;;;27.01;16.65;97721.94;5068680;28;20038;-77
2022/04/21 05:01:55;;;;;;;16.35;8.95;;;;;;;27.17;16.39;97723.72;5066413;28;20056;-77
2022/04/21 05:04:23;;;;;;;15.10;9.27;;;;;;;27.38;16.31;97722.91;5066463;28;20031;-78
2022/04/21 05:06:52;;;;;;;25.38;14.27;;;;;;;27.57;15.90;97718.88;5067737;28;20394;-78
2022/04/21 05:09:21;;;;;;;20.90;12.00;;;;;;;27.76;16.01;97722.53;5070682;28;20032;-79
2022/04/21 05:11:53;;;;;;;19.58;12.50;;;;;;;27.85;15.85;97720.50;5069195;28;20082;-79
2022/04/21 05:14:21;;;;;;;19.23;10.85;;;;;;;27.93;15.84;97721.78;5072140;28;20085;-78
2022/04/21 05:16:47;;;;;;;15.85;9.43;;;;;;;27.98;15.90;97718.31;5079317;28;20037;-79
2022/04/21 05:19:16;;;;;;;18.30;9.98;;;;;;;28.02;15.85;97730.28;5068560;28;20075;-78
2022/04/21 05:21:43;;;;;;;17.58;8.32;;;;;;;28.10;16.09;97730.72;5069595;28;20036;-79
2022/04/21 05:24:10;;;;;;;15.32;8.88;;;;;;;28.14;15.86;97730.59;5070510;28;20658;-78
2022/04/21 05:26:37;;;;;;;15.05;9.40;;;;;;;28.22;15.68;97726.19;5072193;28;20114;-79
2022/04/21 05:32:01;;;;;;;17.45;9.25;;;;;;;28.00;15.96;97723.53;5068371;28;20055;-80
2022/04/21 05:34:29;;;;;;;11.77;7.55;;;;;;;28.12;15.61;97724.63;5070320;28;21077;-81
2022/04/21 05:36:55;;;;;;;14.55;8.57;;;;;;;28.26;15.70;97726.84;5067575;28;20048;-80
2022/04/21 05:39:22;;;;;;;12.77;7.35;;;;;;;28.20;15.46;97720.22;5077082;28;20036;-81
2022/04/21 05:41:51;;;;;;;12.32;8.20;;;;;;;27.95;15.75;97719.28;5075095;28;20513;-81
2022/04/21 05:44:18;;;;;;;12.27;7.30;;;;;;;27.83;15.97;97722.22;5076943;28;20035;-80
2022/04/21 05:46:45;;;;;;;11.80;7.13;;;;;;;27.80;16.27;97726.75;5071485;28;20111;-80
2022/04/21 05:49:12;;;;;;;9.90;6.30;;;;;;;27.91;15.88;97723.50;5086181;28;20028;-80
2022/04/21 05:51:38;;;;;;;12.43;7.22;;;;;;;28.03;15.98;97726.19;5075581;28;20031;-80
2022/04/21 05:54:06;;;;;;;11.38;6.75;;;;;;;28.24;15.97;97727.28;5072271;28;20568;-80
2022/04/21 05:56:33;;;;;;;11.65;6.85;;;;;;;28.37;15.78;97725.09;5075258;28;20079;-81
2022/04/21 05:58:59;;;;;;;10.27;6.50;;;;;;;28.42;15.45;97732.16;5072166;28;20063;-81
2022/04/21 06:01:26;;;;;;;10.75;6.60;;;;;;;28.04;15.98;97733.41;5070629;28;20062;-81
2022/04/21 06:03:55;;;;;;;10.02;5.75;;;;;;;27.45;16.29;97731.06;5074032;28;20029;-81
2022/04/21 06:06:21;;;;;;;9.90;6.13;;;;;;;27.38;17.16;97732.16;5076460;28;20041;-81
2022/04/21 06:08:47;;;;;;;12.38;7.38;;;;;;;27.78;16.54;97731.31;5075785;28;20052;-81
2022/04/21 06:11:13;;;;;;;12.15;6.65;;;;;;;28.09;16.18;97729.19;5082155;28;20089;-81
2022/04/21 06:13:43;;;;;;;14.63;7.25;;;;;;;28.27;15.91;97731.22;5077579;28;20028;-80
2022/04/21 06:16:09;;;;;;;14.07;7.85;;;;;;;28.48;15.92;97728.22;5081213;28;20044;-80
2022/04/21 06:18:36;;;;;;;11.18;6.68;;;;;;;28.61;15.70;97728.09;5077300;28;20456;-81
2022/04/21 06:21:03;;;;;;;11.80;7.05;;;;;;;28.59;16.02;97734.19;5080921;28;20505;-80
2022/04/21 06:23:32;;;;;;;12.82;8.02;;;;;;;28.70;15.81;97728.06;5081932;28;20051;-80
2022/04/21 06:25:59;;;;;;;12.85;7.10;;;;;;;28.71;16.04;97727.59;5083328;28;20047;-81
2022/04/21 06:28:26;;;;;;;13.38;7.05;;;;;;;28.45;16.42;97726.34;5081430;28;20075;-81
2022/04/21 06:30:52;;;;;;;11.38;6.97;;;;;;;28.53;15.99;97732.44;5078285;28;20389;-80
2022/04/21 06:33:19;;;;;;;11.93;7.28;;;;;;;28.32;16.11;97725.72;5080452;28;20036;-80
2022/04/21 06:35:45;;;;;;;9.57;6.10;;;;;;;28.60;16.30;97729.34;5077582;28;20493;-81
2022/04/21 06:38:12;;;;;;;9.35;6.22;;;;;;;29.02;16.17;97716.03;5078518;28;20493;-81
2022/04/21 06:40:38;;;;;;;12.68;7.07;;;;;;;29.26;15.75;97719.75;5078978;28;20473;-80
2022/04/21 06:48:34;;;;;;;9.25;5.50;;;;;;;29.76;15.42;97712.41;5079409;28;20048;-80
2022/04/21 06:51:00;;;;;;;8.85;5.68;;;;;;;29.69;15.45;97714.78;5077453;28;20021;-81
2022/04/21 06:53:26;;;;;;;9.70;6.07;;;;;;;29.62;15.58;97718.75;5078466;28;20032;-80
2022/04/21 06:55:52;;;;;;;8.20;5.13;;;;;;;29.47;15.55;97719.97;5079942;28;20086;-80
2022/04/21 06:58:18;;;;;;;9.48;6.47;;;;;;;29.56;15.35;97715.03;5077703;28;20042;-78
2022/04/21 07:00:45;;;;;;;13.63;7.65;;;;;;;29.63;15.38;97720.34;5084372;28;20036;-80
2022/04/21 07:03:11;;;;;;;12.00;6.70;;;;;;;29.52;15.62;97724.97;5078557;28;20017;-80
2022/04/21 07:05:38;;;;;;;6.32;4.38;;;;;;;29.33;15.64;97725.06;5079714;28;20036;-80
2022/04/21 07:08:04;;;;;;;8.93;4.72;;;;;;;29.40;15.68;97736.03;5079612;28;20040;-81
2022/04/21 07:10:30;;;;;;;4.97;3.75;;;;;;;29.07;15.94;97737.22;5078844;28;20489;-80
2022/04/21 07:12:56;;;;;;;5.07;4.25;;;;;;;28.66;15.86;97733.88;5078425;28;20509;-79
2022/04/21 07:15:22;;;;;;;5.95;3.63;;;;;;;28.25;16.31;97745.81;5080414;28;20548;-80
2022/04/21 07:17:48;;;;;;;8.98;4.75;;;;;;;28.51;16.62;97734.97;5081370;28;20056;-80
2022/04/21 07:20:15;;;;;;;5.80;4.13;;;;;;;28.42;16.71;97737.81;5078304;28;20071;-80
2022/04/21 07:22:41;;;;;;;6.50;3.78;;;;;;;29.00;16.56;97734.72;5077023;28;20028;-80
2022/04/21 07:25:09;;;;;;;8.60;5.05;;;;;;;29.41;15.74;97739.63;5080146;28;20069;-81
2022/04/21 07:27:37;;;;;;;9.40;4.40;;;;;;;29.61;16.30;97737.03;5079371;28;20421;-80
2022/04/21 07:30:04;;;;;;;5.18;3.65;;;;;;;29.62;15.52;97729.28;5078249;28;20040;-80
2022/04/21 07:32:30;;;;;;;5.20;4.07;;;;;;;29.37;15.59;97748.28;5078989;28;20031;-80
2022/04/21 07:34:56;;;;;;;4.88;3.53;;;;;;;29.37;16.05;97756.00;5082236;28;20082;-80
2022/04/21 07:37:22;;;;;;;8.07;4.90;;;;;;;29.65;16.02;97742.50;5079735;28;20032;-80
2022/04/21 07:39:48;;;;;;;5.05;3.60;;;;;;;30.05;15.51;97742.88;5075517;28;20036;-79
2022/04/21 07:42:14;;;;;;;7.18;4.32;;;;;;;30.33;15.88;97741.44;5081374;28;20096;-81
2022/04/21 07:44:41;;;;;;;5.95;3.83;;;;;;;30.27;15.30;97746.16;5082113;28;20063;-80
2022/04/21 07:47:08;;;;;;;6.20;4.30;;;;;;;28.83;16.03;97748.44;5079345;28;20033;-80
2022/04/21 07:49:46;;;;;;;6.75;4.88;;;;;;;28.09;16.63;97760.22;5078850;28;20034;-80
2022/04/21 07:55:17;;;;;;;5.85;4.03;;;;;;;27.74;16.84;97753.25;5078751;28;20133;-79
2022/04/21 07:57:45;;;;;;;5.78;4.68;;;;;;;27.26;17.54;97760.41;5075965;28;20031;-78
2022/04/21 08:00:13;;;;;;;4.43;3.95;;;;;;;26.96;17.67;97759.19;5080709;28;20486;-80
2022/04/21 08:02:41;;;;;;;6.22;4.00;;;;;;;26.69;18.00;97756.97;5080556;28;20040;-79
2022/04/21 08:05:09;;;;;;;7.22;5.18;;;;;;;27.03;17.42;97749.66;5075514;28;20032;-79
2022/04/21 08:07:36;;;;;;;6.50;5.50;;;;;;;27.10;17.44;97760.66;5078899;28;20111;-80
2022/04/21 08:10:09;;;;;;;5.97;4.50;;;;;;;27.19;17.42;97753.03;5082132;28;20430;-80
2022/04/21 08:12:47;;;;;;;6.05;4.15;;;;;;;27.44;17.20;97759.75;5077125;28;20032;-80
2022/04/21 08:15:21;;;;;;;7.47;4.85;;;;;;;27.47;17.42;97753.19;5081226;28;20028;-80
2022/04/21 08:17:47;;;;;;;5.80;4.75;;;;;;;28.24;16.18;97752.69;5078886;28;20040;-82
2022/04/21 08:20:13;;;;;;;7.38;4.15;;;;;;;28.52;16.87;97761.97;5077867;28;20032;-80
2022/04/21 08:22:39;;;;;;;6.47;4.53;;;;;;;28.79;15.78;97759.13;5076711;28;20024;-81
2022/04/21 08:33:21;;;;;;;7.32;5.25;;;;;;;28.60;16.35;97754.75;5079133;28;20113;-80
2022/04/21 08:35:49;;;;;;;6.95;5.22;;;;;;;27.43;17.45;97764.59;5076847;28;20123;-81
2022/04/21 08:38:16;;;;;;;4.47;3.72;;;;;;;27.29;16.93;97751.03;5073859;28;21015;-81
2022/04/21 08:40:53;;;;;;;4.82;3.42;;;;;;;26.97;17.66;97748.69;5076657;28;20070;-81
2022/04/21 08:43:20;;;;;;;6.75;5.22;;;;;;;27.23;16.93;97741.63;5074786;28;20052;-81
2022/04/21 08:45:48;;;;;;;4.95;4.45;;;;;;;27.39;17.68;97744.22;5077673;28;20103;-81
2022/04/21 08:48:17;;;;;;;7.50;5.43;;;;;;;27.87;16.27;97742.59;5078330;28;20028;-80
2022/04/21 08:50:44;;;;;;;6.50;3.92;;;;;;;27.92;16.64;97747.63;5079432;28;20047;-81
2022/04/21 08:53:13;;;;;;;6.18;4.93;;;;;;;27.23;16.19;97744.44;5077200;28;20016;-81
2022/04/21 08:55:39;;;;;;;5.43;4.20;;;;;;;27.93;15.63;97738.72;5080284;28;20067;-81
2022/04/21 08:58:05;;;;;;;5.18;4.20;;;;;;;28.48;15.56;97741.56;5076213;28;20539;-81
2022/04/21 09:00:32;;;;;;;5.38;4.30;;;;;;;27.43;16.82;97736.38;5077977;28;20485;-81
2022/04/21 09:02:59;;;;;;;4.57;3.70;;;;;;;27.65;16.21;97737.09;5078519;28;20158;-80
2022/04/21 09:05:30;;;;;;;6.05;4.75;;;;;;;27.31;17.06;97737.25;5077277;28;20036;-80
2022/04/21 09:07:57;;;;;;;5.80;4.97;;;;;;;27.82;16.45;97737.59;5076210;28;20530;-81
2022/04/21 09:10:25;;;;;;;7.60;6.00;;;;;;;27.28;17.13;97741.03;5075989;28;20559;-81
2022/04/21 09:12:56;;;;;;;7.32;4.80;;;;;;;27.10;17.13;97736.06;5075114;28;20581;-81
2022/04/21 09:15:31;;;;;;;8.18;6.25;;;;;;;27.72;16.64;97727.53;5077213;28;20039;-80
2022/04/21 09:18:06;;;;;;;5.07;4.25;;;;;;;27.70;16.88;97733.63;5074548;28;20123;-81
2022/04/21 09:20:39;;;;;;;4.90;3.88;;;;;;;28.52;16.29;97722.44;5081554;28;20493;-81
2022/04/21 09:23:09;;;;;;;6.55;5.28;;;;;;;29.53;15.29;97715.19;5077256;28;20052;-81
2022/04/21 09:25:45;;;;;;;8.30;5.43;;;;;;;29.33;14.91;97713.75;5078048;28;20036;-81
2022/04/21 09:28:26;;;;;;;6.75;5.40;;;;;;;29.01;15.31;97714.47;5078558;28;20410;-81
2022/04/21 09:30:54;;;;;;;;;;;;;;;29.51;15.61;97706.41;5078748;28;20104;-81
2022/04/21 09:33:30;;;;;;;5.35;4.22;;;;;;;28.31;16.31;97715.69;5079869;28;19928;-81
2022/04/21 09:35:57;;;;;;;6.32;4.90;;;;;;;28.05;16.61;97718.03;5073433;28;20428;-81
2022/04/21 09:38:24;;;;;;;6.75;5.15;;;;;;;27.87;17.00;97717.19;5076271;28;20036;-81
2022/04/21 09:40:50;;;;;;;8.93;6.60;;;;;;;28.00;16.67;97724.31;5079734;28;20024;-81
2022/04/21 09:43:27;;;;;;;7.20;5.03;;;;;;;27.19;17.60;97722.03;5080170;28;20031;-81
2022/04/21 09:46:08;;;;;;;6.60;4.70;;;;;;;27.94;16.68;97714.88;5077937;28;20401;-81
2022/04/21 09:48:34;;;;;;;5.82;4.50;;;;;;;29.44;16.11;97713.22;5075672;28;20469;-82
2022/04/21 09:51:12;;;;;;;6.50;5.05;;;;;;;28.98;15.42;97698.47;5075239;28;20033;-81
2022/04/21 09:54:02;;;;;;;6.50;3.88;;;;;;;30.14;15.73;97703.19;5073350;28;20035;-81
2022/04/21 09:56:37;;;;;;;4.72;4.03;;;;;;;30.77;14.39;97701.81;5079271;28;20032;-81
2022/04/21 09:59:03;;;;;;;3.78;3.20;;;;;;;31.02;14.21;97695.56;5080619;28;20493;-81
2022/04/21 10:01:30;;;;;;;4.30;3.50;;;;;;;29.94;14.89;97705.84;5075140;28;20054;-80
2022/04/21 10:03:57;;;;;;;4.97;4.15;;;;;;;28.36;16.24;97714.25;5073239;28;20303;-81
2022/04/21 10:06:23;;;;;;;6.72;4.80;;;;;;;28.29;16.52;97703.28;5075315;28;20043;-80
2022/04/21 10:08:50;;;;;;;7.22;3.97;;;;;;;28.41;16.23;97702.34;5075855;28;20052;-81
2022/04/21 10:11:23;;;;;;;3.88;3.53;;;;;;;28.29;15.84;97706.09;5076435;28;20042;-81
2022/04/21 10:13:54;;;;;;;4.60;3.75;;;;;;;28.64;16.38;97696.84;5078031;28;20033;-80
2022/04/21 10:16:24;;;;;;;5.38;4.00;;;;;;;28.25;15.88;97699.84;5071686;28;20049;-81
2022/04/21 10:18:54;;;;;;;3.80;3.47;;;;;;;28.19;15.92;97702.53;5075208;28;20111;-81
2022/04/21 10:21:34;;;;;;;3.95;3.55;;;;;;;29.58;16.29;97694.75;5078718;28;20455;-81
2022/04/21 10:24:00;;;;;;;3.60;3.05;;;;;;;30.33;14.22;97693.28;5074504;28;20098;-81
2022/04/21 10:26:45;;;;;;;3.47;3.05;;;;;;;30.56;13.98;97688.81;5075763;28;20448;-81
2022/04/21 10:29:18;;;;;;;5.70;4.43;;;;;;;30.12;14.30;97694.38;5075083;28;20047;-80
2022/04/21 10:31:51;;;;;;;4.28;3.45;;;;;;;28.87;15.42;97697.41;5075767;28;20040;-80
2022/04/21 10:34:42;;;;;;;5.00;3.72;;;;;;;28.79;15.37;97693.34;5076669;28;20036;-80
2022/04/21 10:37:08;;;;;;;5.13;3.90;;;;;;;28.61;15.34;97694.19;5073728;28;20078;-81
2022/04/21 10:39:34;;;;;;;3.67;3.35;;;;;;;29.28;15.28;97691.78;5075298;28;20512;-82
2022/04/21 10:42:18;;;;;;;4.18;3.33;;;;;;;28.20;16.12;97700.47;5075648;28;20033;-80
2022/04/21 10:44:52;;;;;;;5.68;4.15;;;;;;;28.74;15.47;97697.59;5074832;28;20060;-81
2022/04/21 10:47:37;;;;;;;3.53;3.20;;;;;;;29.15;14.74;97690.41;5076121;28;20060;-80
2022/04/21 10:50:16;;;;;;;4.50;3.72;;;;;;;27.69;15.74;97697.44;5073900;28;20032;-80
2022/04/21 10:58:35;;;;;;;4.05;3.30;;;;;;;28.79;14.46;97696.16;5077377;28;20055;-80
2022/04/21 11:01:22;;;;;;;3.10;2.67;;;;;;;28.54;14.62;97675.47;5078549;28;20036;-80
2022/04/21 11:04:06;;;;;;;2.15;1.95;;;;;;;28.61;14.23;97685.72;5078590;28;20033;-81
2022/04/21 11:06:46;;;;;;;7.22;2.70;;;;;;;28.40;14.83;97681.78;5080030;28;20052;-81
2022/04/21 11:09:38;;;;;;;1.77;1.60;;;;;;;29.38;14.44;97675.53;5079508;28;20082;-81
2022/04/21 11:12:09;;;;;;;2.75;2.03;;;;;;;29.66;13.67;97678.97;5077708;28;20410;-80
2022/04/21 11:14:36;;;;;;;;;;;;;;;29.48;13.81;97679.09;5077030;28;20028;-80
2022/04/21 11:17:05;;;;;;;2.75;2.33;;;;;;;29.62;14.19;97686.84;5082462;28;19968;-80
2022/04/21 11:19:51;;;;;;;2.33;2.13;;;;;;;28.88;15.44;97693.31;5081538;28;20039;-80
2022/04/21 11:22:40;;;;;;;2.42;2.05;;;;;;;27.91;15.32;97693.22;5080417;28;20036;-79
2022/04/21 11:25:07;;;;;;;2.28;1.98;;;;;;;28.74;14.74;97677.81;5079265;28;20119;-80
2022/04/21 11:27:40;;;;;;;1.98;1.67;;;;;;;28.86;14.75;97676.06;5082618;28;20040;-80
2022/04/21 11:30:10;;;;;;;1.98;1.60;;;;;;;30.31;14.54;97667.47;5078741;28;20549;-81
2022/04/21 11:32:36;;;;;;;1.25;1.15;;;;;;;30.85;13.35;97668.19;5081742;28;20052;-81
2022/04/21 11:35:06;;;;;;;1.55;1.45;;;;;;;29.72;13.96;97666.50;5078380;28;20024;-80
2022/04/21 11:37:58;;;;;;;1.23;1.13;;;;;;;29.78;14.16;97658.94;5086069;28;20108;-80
2022/04/21 11:40:34;;;;;;;1.88;1.50;;;;;;;28.82;14.89;97659.28;5078328;28;20379;-79
2022/04/21 11:43:11;;;;;;;2.20;1.45;;;;;;;29.67;14.42;97658.69;5081392;28;20028;-80
2022/04/21 11:45:40;;;;;;;1.55;1.27;;;;;;;29.83;14.75;97661.09;5080322;28;20040;-80
2022/04/21 11:48:14;;;;;;;2.85;2.55;;;;;;;28.16;15.79;97682.91;5079127;28;20071;-80
2022/04/21 11:50:45;;;;;;;3.00;1.90;;;;;;;28.46;15.93;97667.81;5075635;28;20033;-80
2022/04/21 11:53:13;;;;;;;;;;;;;;;27.26;16.50;97673.03;5076295;28;20497;-79
2022/04/21 11:55:39;;;;;;;2.80;2.50;;;;;;;27.19;16.42;97670.53;5077322;28;19948;-79
2022/04/21 11:58:05;;;;;;;2.55;1.90;;;;;;;27.19;17.01;97662.81;5071910;28;20041;-79
2022/04/21 12:08:48;;;;;;;3.75;2.28;;;;;;;28.91;15.04;97664.91;5079371;28;20102;-80
2022/04/21 12:11:19;;;;;;;3.17;1.92;;;;;;;28.92;15.62;97660.00;5079832;28;20020;-79
2022/04/21 12:13:47;;;;;;;;;;;;;;;29.00;14.58;97656.38;5079212;28;20073;-80
2022/04/21 12:16:36;;;;;;;2.30;1.63;;;;;;;29.28;14.69;97655.00;5078930;28;20533;-80
2022/04/21 12:19:32;;;;;;;3.35;1.95;;;;;;;29.41;14.74;97654.75;5079650;28;20024;-81
2022/04/21 12:22:07;;;;;;;2.00;1.80;;;;;;;29.39;15.06;97654.47;5078407;28;20037;-80
2022/04/21 12:24:47;;;;;;;2.10;1.90;;;;;;;29.01;15.04;97649.44;5077925;28;20493;-79
2022/04/21 12:27:20;;;;;;;2.42;1.35;;;;;;;28.39;15.74;97651.97;5078010;28;20032;-80
2022/04/21 12:29:56;;;;;;;2.10;1.90;;;;;;;29.35;14.95;97651.03;5075169;28;20123;-81
2022/04/21 12:32:23;;;;;;;2.95;1.80;;;;;;;28.49;15.16;97647.88;5082151;28;20389;-80